»·PEaware :: UAL492 KDEN-KPRC

UAL492 :: KDEN-KPRC

FLIGHT INFORMATION

Flight Status: Arrived
Operator:
United Airlines
More flights by this operator :: More flights under this callsign
Pilot: Mike C. (16705)
Aircraft: Airbus A320neo
(A20N)
More flights by this aircraft type
Origin: KDEN Denver Intl
United States
Destination: KPRC Love
United States
More flights between these airports :: More routes between these airports
Route: BAYLR6 TEHRU JASSE DRK
File this flight plan on PilotEdge
Remarks: RMK / SIMBRIEF
Altitude:
(Current/Filed)
38,000ft
Speed:
(Current/Filed)
459kts
Departed: 03-Apr-23 04:41 PM
Arrived: 03-Apr-23 06:17 PM
Distance/Time
Traveled:
484nm/1:36
Distance/Time
To Go:
Arrived

Flight Plot

Page will automatically refresh every two minutes.

Flight plan parsing failed; only flown route is shown


Map Options




Map Legend


Flown Route
Filed Route
Departure Airport
Arrival Airport
Navaid (VOR, NDB)
Fix

Horizontal Profiles

Position Reports

Time Latitude Longitude Heading Altitude Ground
Speed
03-Apr-23 16:07 39.857962 -104.668291 0 5379ft 0kts
03-Apr-23 16:08 39.857962 -104.668291 0 5379ft 0kts
03-Apr-23 16:09 39.857962 -104.668291 0 5379ft 0kts
03-Apr-23 16:10 39.857962 -104.668291 0 5379ft 0kts
03-Apr-23 16:11 39.857962 -104.668291 0 5379ft 0kts
03-Apr-23 16:12 39.857962 -104.668291 0 5379ft 0kts
03-Apr-23 16:13 39.857962 -104.668291 0 5379ft 0kts
03-Apr-23 16:14 39.857962 -104.668291 0 5379ft 0kts
03-Apr-23 16:15 39.857962 -104.668291 0 5379ft 0kts
03-Apr-23 16:16 39.857962 -104.668291 0 5379ft 0kts
03-Apr-23 16:17 39.857962 -104.668291 0 5379ft 0kts
03-Apr-23 16:18 39.857962 -104.668291 0 5379ft 0kts
03-Apr-23 16:19 39.857962 -104.668291 0 5379ft 0kts
03-Apr-23 16:20 39.857962 -104.668291 0 5379ft 0kts
03-Apr-23 16:21 39.857962 -104.668291 0 5379ft 0kts
03-Apr-23 16:22 39.857962 -104.668291 0 5379ft 0kts
03-Apr-23 16:23 39.857962 -104.668291 0 5379ft 0kts
03-Apr-23 16:24 39.857962 -104.668291 0 5379ft 0kts
03-Apr-23 16:25 39.857853 -104.668294 0 5379ft 2kts
03-Apr-23 16:26 39.857421 -104.668670 86 5379ft 0kts
03-Apr-23 16:27 39.857423 -104.668769 90 5379ft 0kts
03-Apr-23 16:28 39.857423 -104.668769 90 5379ft 0kts
03-Apr-23 16:29 39.857423 -104.668769 90 5379ft 0kts
03-Apr-23 16:30 39.857422 -104.668768 90 5379ft 0kts
03-Apr-23 16:31 39.856631 -104.667107 98 5379ft 8kts
03-Apr-23 16:32 39.856834 -104.663865 88 5383ft 5kts
03-Apr-23 16:33 39.858513 -104.662363 1 5388ft 18kts
03-Apr-23 16:34 39.863930 -104.662253 0 5385ft 20kts
03-Apr-23 16:35 39.870524 -104.662228 1 5365ft 28kts
03-Apr-23 16:36 39.876320 -104.662085 1 5356ft 0kts
03-Apr-23 16:37 39.876320 -104.662085 1 5356ft 0kts
03-Apr-23 16:38 39.877083 -104.662056 0 5356ft 8kts
03-Apr-23 16:39 39.877524 -104.660482 92 5356ft 0kts
03-Apr-23 16:41 39.877553 -104.656648 88 5356ft 79kts
03-Apr-23 16:42 39.876658 -104.598761 89 7284ft 178kts
03-Apr-23 16:43 39.876192 -104.525632 91 8699ft 233kts
03-Apr-23 16:44 39.877213 -104.431646 91 10625ft 283kts
03-Apr-23 16:45 39.838029 -104.344705 171 11904ft 325kts
03-Apr-23 16:46 39.744949 -104.365703 206 13833ft 350kts
03-Apr-23 16:47 39.697842 -104.466761 270 16539ft 356kts
03-Apr-23 16:48 39.709313 -104.595325 270 18881ft 366kts
03-Apr-23 16:49 39.721352 -104.727557 270 21105ft 373kts
03-Apr-23 16:50 39.733702 -104.861939 271 23154ft 379kts
03-Apr-23 16:51 39.743847 -105.000711 261 24497ft 390kts
03-Apr-23 16:52 39.713075 -105.133292 245 25974ft 388kts
03-Apr-23 16:53 39.670711 -105.263049 245 27267ft 391kts
03-Apr-23 16:54 39.628479 -105.391412 245 28936ft 382kts
03-Apr-23 16:55 39.587095 -105.516426 245 30430ft 375kts
03-Apr-23 16:56 39.547556 -105.638909 248 31890ft 366kts
03-Apr-23 16:57 39.513546 -105.761991 247 33084ft 362kts
03-Apr-23 16:58 39.479625 -105.884112 245 33974ft 362kts
03-Apr-23 16:59 39.445706 -106.004968 247 35005ft 353kts
03-Apr-23 17:00 39.412537 -106.123457 246 35736ft 350kts
03-Apr-23 17:01 39.379084 -106.241986 246 36102ft 354kts
03-Apr-23 17:02 39.345212 -106.361539 246 36461ft 356kts
03-Apr-23 17:03 39.310938 -106.481793 246 36716ft 359kts
03-Apr-23 17:04 39.276186 -106.603339 246 36933ft 362kts
03-Apr-23 17:05 39.235470 -106.720755 239 37336ft 356kts
03-Apr-23 17:06 39.180826 -106.826592 233 37371ft 355kts
03-Apr-23 17:06 39.131922 -106.911802 233 37366ft 357kts
03-Apr-23 17:07 39.072247 -107.014693 235 37370ft 359kts
03-Apr-23 17:08 39.012754 -107.117193 234 37367ft 358kts
03-Apr-23 17:10 38.943367 -107.236219 233 37380ft 354kts
03-Apr-23 17:11 38.883940 -107.337504 232 37390ft 357kts
03-Apr-23 17:11 38.838934 -107.413608 232 37386ft 359kts
03-Apr-23 17:12 38.778478 -107.515868 232 37374ft 358kts
03-Apr-23 17:13 38.718728 -107.617022 231 37347ft 355kts
03-Apr-23 17:14 38.659158 -107.717799 231 37335ft 355kts
03-Apr-23 17:16 38.589634 -107.834764 232 37311ft 353kts
03-Apr-23 17:16 38.540004 -107.918101 231 37311ft 354kts
03-Apr-23 17:17 38.480004 -108.018422 231 37305ft 356kts
03-Apr-23 17:18 38.419943 -108.118638 231 37293ft 356kts
03-Apr-23 17:19 38.359222 -108.219283 232 37324ft 359kts
03-Apr-23 17:20 38.298888 -108.319287 231 37348ft 359kts
03-Apr-23 17:21 38.237658 -108.420318 232 37374ft 361kts
03-Apr-23 17:22 38.176411 -108.521101 232 37353ft 359kts
03-Apr-23 17:23 38.115301 -108.621522 231 37347ft 360kts
03-Apr-23 17:24 38.053903 -108.722179 231 37341ft 360kts
03-Apr-23 17:25 37.992314 -108.822801 231 37294ft 361kts
03-Apr-23 17:26 37.930419 -108.923506 231 37295ft 362kts
03-Apr-23 17:27 37.869296 -109.022259 231 37330ft 364kts
03-Apr-23 17:28 37.806827 -109.122965 230 37341ft 364kts
03-Apr-23 17:29 37.744256 -109.223395 231 37339ft 363kts
03-Apr-23 17:30 37.681828 -109.323577 232 37327ft 362kts
03-Apr-23 17:31 37.619462 -109.423597 231 37344ft 362kts
03-Apr-23 17:32 37.557234 -109.522822 232 37358ft 362kts
03-Apr-23 17:33 37.494700 -109.622446 231 37359ft 364kts
03-Apr-23 17:34 37.431875 -109.722537 230 37349ft 364kts
03-Apr-23 17:35 37.369003 -109.822130 230 37353ft 364kts
03-Apr-23 17:36 37.305709 -109.921989 230 37348ft 365kts
03-Apr-23 17:37 37.242440 -110.021538 230 37352ft 364kts
03-Apr-23 17:38 37.178674 -110.119673 225 37395ft 364kts
03-Apr-23 17:39 37.100043 -110.199835 220 37388ft 365kts
03-Apr-23 17:40 37.020505 -110.278584 218 37378ft 364kts
03-Apr-23 17:41 36.940859 -110.356882 219 37377ft 365kts
03-Apr-23 17:42 36.860864 -110.435296 220 37375ft 366kts
03-Apr-23 17:43 36.780399 -110.513856 221 37370ft 368kts
03-Apr-23 17:44 36.700091 -110.592387 220 37393ft 367kts
03-Apr-23 17:45 36.619692 -110.670821 220 37397ft 366kts
03-Apr-23 17:46 36.539730 -110.749051 219 37401ft 364kts
03-Apr-23 17:47 36.460381 -110.826210 218 37393ft 361kts
03-Apr-23 17:48 36.381092 -110.902719 219 37407ft 362kts
03-Apr-23 17:49 36.301469 -110.979487 219 37423ft 363kts
03-Apr-23 17:50 36.221530 -111.056387 220 37393ft 365kts
03-Apr-23 17:51 36.142671 -111.132098 220 35396ft 351kts
03-Apr-23 17:52 36.065639 -111.205841 220 33404ft 352kts
03-Apr-23 17:53 35.986988 -111.280954 220 31504ft 361kts
03-Apr-23 17:54 35.906175 -111.357922 219 29709ft 372kts
03-Apr-23 17:55 35.823177 -111.436271 220 27912ft 378kts
03-Apr-23 17:56 35.738981 -111.515872 220 26108ft 383kts
03-Apr-23 17:57 35.653496 -111.596561 220 24307ft 391kts
03-Apr-23 17:58 35.568681 -111.676533 220 22526ft 384kts
03-Apr-23 17:59 35.484583 -111.755874 220 20724ft 377kts
03-Apr-23 18:00 35.401955 -111.833374 220 18923ft 368kts
03-Apr-23 18:01 35.321969 -111.908234 218 17127ft 357kts
03-Apr-23 18:02 35.243737 -111.981111 217 15327ft 350kts
03-Apr-23 18:03 35.167348 -112.052081 217 13519ft 333kts
03-Apr-23 18:04 35.099731 -112.114840 217 11693ft 269kts
03-Apr-23 18:05 35.041789 -112.168547 217 9995ft 247kts
03-Apr-23 18:06 34.994071 -112.212752 217 10004ft 187kts
03-Apr-23 18:07 34.955540 -112.247251 201 9942ft 163kts
03-Apr-23 18:08 34.909505 -112.240891 170 9832ft 173kts
03-Apr-23 18:09 34.863226 -112.223106 169 9139ft 173kts
03-Apr-23 18:10 34.822099 -112.238214 223 8538ft 167kts
03-Apr-23 18:11 34.788195 -112.277487 219 8209ft 168kts
03-Apr-23 18:12 34.753033 -112.314940 218 7308ft 166kts
03-Apr-23 18:13 34.720934 -112.349003 217 6474ft 137kts
03-Apr-23 18:14 34.692316 -112.379347 217 5772ft 134kts
03-Apr-23 18:15 34.665664 -112.407649 217 5082ft 126kts
03-Apr-23 18:16 34.652676 -112.421341 222 5001ft 14kts
03-Apr-23 18:17 34.649981 -112.424297 222 5014ft 20kts
03-Apr-23 18:18 34.649908 -112.426285 315 5023ft 7kts
03-Apr-23 18:19 34.649975 -112.426849 253 5025ft 0kts
03-Apr-23 18:20 34.649975 -112.426849 253 5025ft 0kts
03-Apr-23 18:21 34.649975 -112.426849 253 5025ft 0kts
03-Apr-23 18:22 34.649975 -112.426849 253 5025ft 0kts
03-Apr-23 18:23 34.649975 -112.426849 253 5025ft 0kts
03-Apr-23 18:24 34.649975 -112.426849 253 5025ft 0kts

Navigation Log

Ident Type
Flight plan parsing failed, navigation log unavailable